Houston, Texas
Traffic Map
Current Weather Conditions
Houston, Texas
Clear
Clear
11°
Feels Like: 11°
Wind Chill: 11° Ceiling: Unl
Heat Index: 11° Visibility: 10mi
Dew Point: Wind: 15mph
Humidity: 62% Direction: 90° (E)
Pressure: 30.22in Gusts: 20mph
Raw Report DataKMCJ 310655Z AUTO 09013G17KT 10SM CLR 11/04 A3022 RMK AO1
Traffic Incident Summary
Active as of:
Severity:
Category:
InformationThere was an issue retrieving the traffic information for this location. Please try a different location or try again shortly.
Advertisements
Track Severe Weather on mobile